sensor_id;sensor_type;location;lat;lon;timestamp;pressure;altitude;pressure_sealevel;temperature;humidity
78485;BME280;67773;50.806;8.776;2023-08-17T00:01:37;99827.94;;;17.49;100.00
78485;BME280;67773;50.806;8.776;2023-08-17T00:04:08;99830.59;;;17.38;100.00
78485;BME280;67773;50.806;8.776;2023-08-17T00:06:39;99833.91;;;17.42;100.00
78485;BME280;67773;50.806;8.776;2023-08-17T00:09:04;99833.66;;;17.45;100.00
78485;BME280;67773;50.806;8.776;2023-08-17T00:11:33;99829.41;;;17.42;100.00
78485;BME280;67773;50.806;8.776;2023-08-17T00:13:58;99825.97;;;17.40;100.00
78485;BME280;67773;50.806;8.776;2023-08-17T00:16:27;99828.63;;;17.40;100.00
78485;BME280;67773;50.806;8.776;2023-08-17T00:18:58;99825.97;;;17.40;100.00
78485;BME280;67773;50.806;8.776;2023-08-17T00:21:38;99820.38;;;17.43;100.00
78485;BME280;67773;50.806;8.776;2023-08-17T00:24:13;99828.44;;;17.43;100.00
78485;BME280;67773;50.806;8.776;2023-08-17T00:26:38;99825.97;;;17.40;100.00
78485;BME280;67773;50.806;8.776;2023-08-17T00:29:06;99829.41;;;17.42;100.00
78485;BME280;67773;50.806;8.776;2023-08-17T00:31:34;99821.59;;;17.50;100.00
78485;BME280;67773;50.806;8.776;2023-08-17T00:33:59;99813.06;;;17.45;100.00
78485;BME280;67773;50.806;8.776;2023-08-17T00:36:25;99808.78;;;17.43;100.00
78485;BME280;67773;50.806;8.776;2023-08-17T00:38:53;99812.66;;;17.39;100.00
78485;BME280;67773;50.806;8.776;2023-08-17T00:41:21;99810.47;;;17.33;100.00
78485;BME280;67773;50.806;8.776;2023-08-17T00:43:50;99809.75;;;17.30;100.00
78485;BME280;67773;50.806;8.776;2023-08-17T00:46:23;99808.25;;;17.26;100.00
78485;BME280;67773;50.806;8.776;2023-08-17T00:48:57;99815.09;;;17.30;100.00
78485;BME280;67773;50.806;8.776;2023-08-17T00:51:27;99826.44;;;17.34;100.00
78485;BME280;67773;50.806;8.776;2023-08-17T00:53:53;99814.28;;;17.41;100.00
78485;BME280;67773;50.806;8.776;2023-08-17T00:56:22;99821.22;;;17.44;100.00
78485;BME280;67773;50.806;8.776;2023-08-17T00:58:49;99815.75;;;17.45;100.00
78485;BME280;67773;50.806;8.776;2023-08-17T01:01:14;99814.16;;;17.43;100.00
78485;BME280;67773;50.806;8.776;2023-08-17T01:03:42;99823.66;;;17.47;100.00
78485;BME280;67773;50.806;8.776;2023-08-17T01:06:10;99818.41;;;17.45;100.00
78485;BME280;67773;50.806;8.776;2023-08-17T01:08:45;99823.91;;;17.44;100.00
78485;BME280;67773;50.806;8.776;2023-08-17T01:11:25;99813.91;;;17.46;100.00
78485;BME280;67773;50.806;8.776;2023-08-17T01:14:09;99821.84;;;17.47;100.00
78485;BME280;67773;50.806;8.776;2023-08-17T01:16:48;99821.59;;;17.50;100.00
78485;BME280;67773;50.806;8.776;2023-08-17T01:19:26;99817.97;;;17.51;100.00
78485;BME280;67773;50.806;8.776;2023-08-17T01:21:54;99814.06;;;17.55;100.00
78485;BME280;67773;50.806;8.776;2023-08-17T01:24:31;99811.38;;;17.55;100.00
78485;BME280;67773;50.806;8.776;2023-08-17T01:26:59;99816.00;;;17.53;100.00
78485;BME280;67773;50.806;8.776;2023-08-17T01:29:45;99808.94;;;17.52;100.00
78485;BME280;67773;50.806;8.776;2023-08-17T01:32:25;99807.44;;;17.48;100.00
78485;BME280;67773;50.806;8.776;2023-08-17T01:35:18;99805.50;;;17.50;100.00
78485;BME280;67773;50.806;8.776;2023-08-17T01:37:49;99805.28;;;17.53;100.00
78485;BME280;67773;50.806;8.776;2023-08-17T01:40:19;99805.28;;;17.53;100.00
78485;BME280;67773;50.806;8.776;2023-08-17T01:42:51;99807.72;;;17.56;100.00
78485;BME280;67773;50.806;8.776;2023-08-17T01:45:19;99815.06;;;17.66;100.00
78485;BME280;67773;50.806;8.776;2023-08-17T01:47:50;99814.72;;;17.70;99.99
78485;BME280;67773;50.806;8.776;2023-08-17T01:50:18;99810.66;;;17.65;99.86
78485;BME280;67773;50.806;8.776;2023-08-17T01:52:52;99804.66;;;17.61;100.00
78485;BME280;67773;50.806;8.776;2023-08-17T01:55:21;99800.63;;;17.44;100.00
78485;BME280;67773;50.806;8.776;2023-08-17T01:57:46;99817.97;;;17.51;100.00
78485;BME280;67773;50.806;8.776;2023-08-17T02:00:21;99816.03;;;17.65;100.00
78485;BME280;67773;50.806;8.776;2023-08-17T02:02:55;99805.03;;;17.68;100.00
78485;BME280;67773;50.806;8.776;2023-08-17T02:05:26;99805.41;;;17.63;100.00
78485;BME280;67773;50.806;8.776;2023-08-17T02:07:53;99806.72;;;17.57;100.00
78485;BME280;67773;50.806;8.776;2023-08-17T02:10:21;99808.69;;;17.55;100.00
78485;BME280;67773;50.806;8.776;2023-08-17T02:12:52;99798.34;;;17.62;100.00
78485;BME280;67773;50.806;8.776;2023-08-17T02:15:28;99800.78;;;17.65;100.00
78485;BME280;67773;50.806;8.776;2023-08-17T02:18:16;99806.28;;;17.64;100.00
78485;BME280;67773;50.806;8.776;2023-08-17T02:20:44;99798.09;;;17.65;100.00
78485;BME280;67773;50.806;8.776;2023-08-17T02:23:10;99786.50;;;17.65;100.00
78485;BME280;67773;50.806;8.776;2023-08-17T02:25:38;99794.09;;;17.71;100.00
78485;BME280;67773;50.806;8.776;2023-08-17T02:28:04;99789.56;;;17.71;100.00
78485;BME280;67773;50.806;8.776;2023-08-17T02:30:30;99792.00;;;17.63;100.00
78485;BME280;67773;50.806;8.776;2023-08-17T02:32:58;99792.97;;;17.62;100.00
78485;BME280;67773;50.806;8.776;2023-08-17T02:35:41;99781.50;;;17.71;100.00
78485;BME280;67773;50.806;8.776;2023-08-17T02:38:07;99782.09;;;17.64;100.00
78485;BME280;67773;50.806;8.776;2023-08-17T02:40:32;99785.78;;;17.63;100.00
78485;BME280;67773;50.806;8.776;2023-08-17T02:42:57;99785.78;;;17.63;100.00
78485;BME280;67773;50.806;8.776;2023-08-17T02:45:23;99785.00;;;17.60;100.00
78485;BME280;67773;50.806;8.776;2023-08-17T02:47:48;99786.75;;;17.62;100.00
78485;BME280;67773;50.806;8.776;2023-08-17T02:50:13;99781.25;;;17.63;100.00
78485;BME280;67773;50.806;8.776;2023-08-17T02:52:42;99775.75;;;17.65;100.00
78485;BME280;67773;50.806;8.776;2023-08-17T02:55:07;99781.13;;;17.65;100.00
78485;BME280;67773;50.806;8.776;2023-08-17T02:57:33;99777.22;;;17.57;100.00
78485;BME280;67773;50.806;8.776;2023-08-17T02:59:58;99777.22;;;17.57;100.00
78485;BME280;67773;50.806;8.776;2023-08-17T03:02:23;99778.97;;;17.70;100.00
78485;BME280;67773;50.806;8.776;2023-08-17T03:04:49;99775.06;;;17.74;100.00
78485;BME280;67773;50.806;8.776;2023-08-17T03:07:17;99777.63;;;17.75;100.00
78485;BME280;67773;50.806;8.776;2023-08-17T03:09:45;99775.94;;;17.74;100.00
78485;BME280;67773;50.806;8.776;2023-08-17T03:12:11;99778.97;;;17.70;100.00
78485;BME280;67773;50.806;8.776;2023-08-17T03:14:36;99776.38;;;17.68;100.00
78485;BME280;67773;50.806;8.776;2023-08-17T03:17:04;99775.75;;;17.65;100.00
78485;BME280;67773;50.806;8.776;2023-08-17T03:19:38;99776.22;;;17.58;100.00
78485;BME280;67773;50.806;8.776;2023-08-17T03:22:03;99773.19;;;17.63;100.00
78485;BME280;67773;50.806;8.776;2023-08-17T03:24:31;99774.66;;;17.67;100.00
78485;BME280;67773;50.806;8.776;2023-08-17T03:27:02;99773.59;;;17.70;100.00
78485;BME280;67773;50.806;8.776;2023-08-17T03:29:30;99773.38;;;17.73;100.00
78485;BME280;67773;50.806;8.776;2023-08-17T03:31:56;99773.06;;;17.65;100.00
78485;BME280;67773;50.806;8.776;2023-08-17T03:34:21;99772.94;;;17.66;100.00
78485;BME280;67773;50.806;8.776;2023-08-17T03:36:46;99774.44;;;17.70;100.00
78485;BME280;67773;50.806;8.776;2023-08-17T03:39:14;99777.47;;;17.66;100.00
78485;BME280;67773;50.806;8.776;2023-08-17T03:41:52;99780.63;;;17.59;100.00
78485;BME280;67773;50.806;8.776;2023-08-17T03:44:20;99774.78;;;17.54;100.00
78485;BME280;67773;50.806;8.776;2023-08-17T03:46:51;99771.38;;;17.52;100.00
78485;BME280;67773;50.806;8.776;2023-08-17T03:49:19;99772.34;;;17.51;100.00
78485;BME280;67773;50.806;8.776;2023-08-17T03:51:44;99782.09;;;17.52;100.00
78485;BME280;67773;50.806;8.776;2023-08-17T03:54:26;99780.88;;;17.56;100.00
78485;BME280;67773;50.806;8.776;2023-08-17T03:57:01;99778.91;;;17.47;100.00
78485;BME280;67773;50.806;8.776;2023-08-17T04:00:02;99785.50;;;17.43;100.00
78485;BME280;67773;50.806;8.776;2023-08-17T04:02:28;99784.84;;;17.40;100.00
78485;BME280;67773;50.806;8.776;2023-08-17T04:04:56;99786.69;;;17.39;100.00
78485;BME280;67773;50.806;8.776;2023-08-17T04:07:27;99784.75;;;17.41;100.00
78485;BME280;67773;50.806;8.776;2023-08-17T04:10:13;99791.97;;;17.41;100.00
78485;BME280;67773;50.806;8.776;2023-08-17T04:12:41;99794.53;;;17.42;100.00
78485;BME280;67773;50.806;8.776;2023-08-17T04:15:09;99790.34;;;17.38;100.00
78485;BME280;67773;50.806;8.776;2023-08-17T04:17:37;99800.38;;;17.47;100.00
78485;BME280;67773;50.806;8.776;2023-08-17T04:20:06;99796.50;;;17.51;100.00
78485;BME280;67773;50.806;8.776;2023-08-17T04:22:37;99789.91;;;17.55;100.00
78485;BME280;67773;50.806;8.776;2023-08-17T04:25:05;99798.09;;;17.65;100.00
78485;BME280;67773;50.806;8.776;2023-08-17T04:27:36;99805.03;;;17.68;100.00
78485;BME280;67773;50.806;8.776;2023-08-17T04:30:13;99801.94;;;17.74;100.00
78485;BME280;67773;50.806;8.776;2023-08-17T04:32:41;99805.09;;;17.79;100.00
78485;BME280;67773;50.806;8.776;2023-08-17T04:35:07;99814.84;;;17.80;100.00
78485;BME280;67773;50.806;8.776;2023-08-17T04:37:39;99818.25;;;17.82;100.00
78485;BME280;67773;50.806;8.776;2023-08-17T04:40:05;99817.53;;;17.80;100.00
78485;BME280;67773;50.806;8.776;2023-08-17T04:42:37;99817.53;;;17.80;100.00
78485;BME280;67773;50.806;8.776;2023-08-17T04:45:06;99825.09;;;17.75;100.00
78485;BME280;67773;50.806;8.776;2023-08-17T04:47:31;99824.38;;;17.73;100.00
78485;BME280;67773;50.806;8.776;2023-08-17T04:50:30;99821.19;;;17.79;100.00
78485;BME280;67773;50.806;8.776;2023-08-17T04:52:58;99831.47;;;17.85;100.00
78485;BME280;67773;50.806;8.776;2023-08-17T04:55:31;99826.69;;;17.88;100.00
78485;BME280;67773;50.806;8.776;2023-08-17T04:57:59;99817.19;;;17.84;100.00
78485;BME280;67773;50.806;8.776;2023-08-17T05:00:25;99823.66;;;17.93;100.00
78485;BME280;67773;50.806;8.776;2023-08-17T05:02:54;99821.59;;;17.97;100.00
78485;BME280;67773;50.806;8.776;2023-08-17T05:05:24;99815.72;;;17.92;100.00
78485;BME280;67773;50.806;8.776;2023-08-17T05:07:58;99821.72;;;17.95;100.00
78485;BME280;67773;50.806;8.776;2023-08-17T05:10:23;99826.22;;;17.95;100.00
78485;BME280;67773;50.806;8.776;2023-08-17T05:12:51;99826.44;;;17.92;100.00
78485;BME280;67773;50.806;8.776;2023-08-17T05:15:35;99819.75;;;17.97;100.00
78485;BME280;67773;50.806;8.776;2023-08-17T05:18:02;99819.50;;;18.00;100.00
78485;BME280;67773;50.806;8.776;2023-08-17T05:20:34;99823.16;;;17.77;100.00
78485;BME280;67773;50.806;8.776;2023-08-17T05:22:59;99828.28;;;17.80;100.00
78485;BME280;67773;50.806;8.776;2023-08-17T05:25:31;99826.09;;;17.85;100.00
78485;BME280;67773;50.806;8.776;2023-08-17T05:27:59;99826.31;;;17.82;100.00
78485;BME280;67773;50.806;8.776;2023-08-17T05:30:32;99824.59;;;17.81;100.00
78485;BME280;67773;50.806;8.776;2023-08-17T05:33:00;99831.47;;;17.85;100.00
78485;BME280;67773;50.806;8.776;2023-08-17T05:35:32;99832.44;;;17.84;100.00
78485;BME280;67773;50.806;8.776;2023-08-17T05:37:57;99820.72;;;17.74;100.00
78485;BME280;67773;50.806;8.776;2023-08-17T05:40:34;99825.97;;;17.75;100.00
78485;BME280;67773;50.806;8.776;2023-08-17T05:43:02;99831.94;;;17.79;99.98
78485;BME280;67773;50.806;8.776;2023-08-17T05:45:30;99838.53;;;17.86;100.00
78485;BME280;67773;50.806;8.776;2023-08-17T05:47:59;99838.16;;;17.79;100.00
78485;BME280;67773;50.806;8.776;2023-08-17T05:50:30;99844.63;;;17.77;100.00
78485;BME280;67773;50.806;8.776;2023-08-17T05:53:03;99844.25;;;17.70;100.00
78485;BME280;67773;50.806;8.776;2023-08-17T05:55:29;99839.38;;;17.75;100.00
78485;BME280;67773;50.806;8.776;2023-08-17T05:58:09;99837.06;;;17.82;100.00
78485;BME280;67773;50.806;8.776;2023-08-17T06:00:46;99836.56;;;17.77;100.00
78485;BME280;67773;50.806;8.776;2023-08-17T06:03:40;99830.22;;;17.78;100.00
78485;BME280;67773;50.806;8.776;2023-08-17T06:06:06;99821.06;;;17.80;99.96
78485;BME280;67773;50.806;8.776;2023-08-17T06:08:40;99834.03;;;17.98;99.82
78485;BME280;67773;50.806;8.776;2023-08-17T06:11:46;99830.13;;;17.91;99.64
78485;BME280;67773;50.806;8.776;2023-08-17T06:14:31;99823.66;;;17.93;99.80
78485;BME280;67773;50.806;8.776;2023-08-17T06:17:13;99828.78;;;18.18;99.07
78485;BME280;67773;50.806;8.776;2023-08-17T06:22:40;99834.78;;;18.44;97.75
78485;BME280;67773;50.806;8.776;2023-08-17T06:25:14;99830.84;;;18.49;97.01
78485;BME280;67773;50.806;8.776;2023-08-17T06:27:44;99835.94;;;18.63;96.21
78485;BME280;67773;50.806;8.776;2023-08-17T06:30:20;99839.75;;;18.60;95.97
78485;BME280;67773;50.806;8.776;2023-08-17T06:32:51;99835.47;;;18.58;96.29
78485;BME280;67773;50.806;8.776;2023-08-17T06:35:37;99842.06;;;18.42;96.61
78485;BME280;67773;50.806;8.776;2023-08-17T06:38:12;99841.00;;;18.45;96.28
78485;BME280;67773;50.806;8.776;2023-08-17T06:40:37;99845.41;;;18.35;96.09
78485;BME280;67773;50.806;8.776;2023-08-17T06:43:08;99835.63;;;18.45;96.68
78485;BME280;67773;50.806;8.776;2023-08-17T06:46:05;99848.28;;;18.54;96.46
78485;BME280;67773;50.806;8.776;2023-08-17T06:48:54;99836.59;;;18.55;96.47
78485;BME280;67773;50.806;8.776;2023-08-17T06:51:44;99840.00;;;18.68;95.93
78485;BME280;67773;50.806;8.776;2023-08-17T06:54:29;99835.31;;;18.82;95.17
78485;BME280;67773;50.806;8.776;2023-08-17T06:57:11;99846.03;;;18.93;94.27
78485;BME280;67773;50.806;8.776;2023-08-17T06:59:41;99836.22;;;19.03;94.93
78485;BME280;67773;50.806;8.776;2023-08-17T07:02:11;99821.19;;;19.00;94.58
78485;BME280;67773;50.806;8.776;2023-08-17T07:04:42;99841.19;;;19.19;94.57
78485;BME280;67773;50.806;8.776;2023-08-17T07:07:15;99844.88;;;19.18;94.31
78485;BME280;67773;50.806;8.776;2023-08-17T07:09:43;99829.94;;;19.14;94.65
78485;BME280;67773;50.806;8.776;2023-08-17T07:12:11;99839.81;;;19.24;91.01
78485;BME280;67773;50.806;8.776;2023-08-17T07:14:56;99840.75;;;19.35;90.55
78485;BME280;67773;50.806;8.776;2023-08-17T07:17:38;99838.69;;;19.27;91.74
78485;BME280;67773;50.806;8.776;2023-08-17T07:20:11;99847.16;;;19.22;93.11
78485;BME280;67773;50.806;8.776;2023-08-17T07:22:48;99853.00;;;19.27;89.82
78485;BME280;67773;50.806;8.776;2023-08-17T07:25:22;99847.47;;;19.40;88.52
78485;BME280;67773;50.806;8.776;2023-08-17T07:27:48;99854.69;;;19.40;91.00
78485;BME280;67773;50.806;8.776;2023-08-17T07:30:16;99843.16;;;19.38;91.66
78485;BME280;67773;50.806;8.776;2023-08-17T07:32:50;99859.03;;;19.52;92.62
78485;BME280;67773;50.806;8.776;2023-08-17T07:35:47;99847.25;;;19.32;92.51
78485;BME280;67773;50.806;8.776;2023-08-17T07:38:41;99857.94;;;19.22;92.78
78485;BME280;67773;50.806;8.776;2023-08-17T07:41:19;99855.47;;;19.30;92.48
78485;BME280;67773;50.806;8.776;2023-08-17T07:43:54;99861.41;;;19.34;92.13
78485;BME280;67773;50.806;8.776;2023-08-17T07:46:22;99860.66;;;19.43;91.33
78485;BME280;67773;50.806;8.776;2023-08-17T07:49:04;99863.78;;;19.48;89.81
78485;BME280;67773;50.806;8.776;2023-08-17T07:54:29;99864.38;;;19.63;90.96
78485;BME280;67773;50.806;8.776;2023-08-17T07:56:59;99859.31;;;19.70;90.44
78485;BME280;67773;50.806;8.776;2023-08-17T07:59:29;99860.91;;;19.72;88.72
78485;BME280;67773;50.806;8.776;2023-08-17T08:01:55;99856.41;;;19.82;86.77
78485;BME280;67773;50.806;8.776;2023-08-17T08:04:25;99859.56;;;19.87;88.59
78485;BME280;67773;50.806;8.776;2023-08-17T08:06:56;99857.53;;;19.80;89.32
78485;BME280;67773;50.806;8.776;2023-08-17T08:09:24;99858.41;;;19.80;90.84
78485;BME280;67773;50.806;8.776;2023-08-17T08:11:55;99871.97;;;19.79;90.52
78485;BME280;67773;50.806;8.776;2023-08-17T08:16:59;99865.75;;;19.78;91.40
78485;BME280;67773;50.806;8.776;2023-08-17T08:19:50;99861.19;;;19.79;90.78
78485;BME280;67773;50.806;8.776;2023-08-17T08:22:21;99874.09;;;19.75;90.79
78485;BME280;67773;50.806;8.776;2023-08-17T08:24:49;99877.56;;;19.66;90.66
78485;BME280;67773;50.806;8.776;2023-08-17T08:27:14;99868.91;;;19.83;90.03
78485;BME280;67773;50.806;8.776;2023-08-17T08:30:03;99872.59;;;19.82;89.97
78485;BME280;67773;50.806;8.776;2023-08-17T08:35:38;99886.63;;;19.65;91.17
78485;BME280;67773;50.806;8.776;2023-08-17T08:38:09;99879.03;;;19.70;91.25
78485;BME280;67773;50.806;8.776;2023-08-17T08:40:37;99889.25;;;19.76;91.96
78485;BME280;67773;50.806;8.776;2023-08-17T08:43:44;99887.03;;;19.81;89.96
78485;BME280;67773;50.806;8.776;2023-08-17T08:46:11;99882.56;;;19.92;91.75
78485;BME280;67773;50.806;8.776;2023-08-17T08:51:31;99880.25;;;20.08;89.92
78485;BME280;67773;50.806;8.776;2023-08-17T08:54:31;99883.03;;;20.27;88.16
78485;BME280;67773;50.806;8.776;2023-08-17T08:57:15;99879.34;;;20.28;86.45
78485;BME280;67773;50.806;8.776;2023-08-17T08:59:52;99865.78;;;20.39;87.82
78485;BME280;67773;50.806;8.776;2023-08-17T09:05:13;99860.13;;;20.42;88.69
78485;BME280;67773;50.806;8.776;2023-08-17T09:08:08;99859.47;;;20.50;87.84
78485;BME280;67773;50.806;8.776;2023-08-17T09:11:18;99849.66;;;20.49;88.30
78485;BME280;67773;50.806;8.776;2023-08-17T09:16:58;99866.47;;;20.72;87.12
78485;BME280;67773;50.806;8.776;2023-08-17T09:19:38;99859.94;;;20.65;86.44
78485;BME280;67773;50.806;8.776;2023-08-17T09:22:24;99862.00;;;20.52;87.32
78485;BME280;67773;50.806;8.776;2023-08-17T09:25:11;99856.50;;;20.63;84.98
78485;BME280;67773;50.806;8.776;2023-08-17T09:30:59;99865.84;;;20.49;87.21
78485;BME280;67773;50.806;8.776;2023-08-17T09:33:54;99856.78;;;20.60;84.68
78485;BME280;67773;50.806;8.776;2023-08-17T09:36:51;99855.13;;;20.68;87.16
78485;BME280;67773;50.806;8.776;2023-08-17T09:39:24;99864.38;;;20.75;85.67
78485;BME280;67773;50.806;8.776;2023-08-17T09:42:03;99849.66;;;21.09;83.06
78485;BME280;67773;50.806;8.776;2023-08-17T09:47:43;99845.53;;;21.53;81.21
78485;BME280;67773;50.806;8.776;2023-08-17T09:50:49;99846.69;;;21.50;81.36
78485;BME280;67773;50.806;8.776;2023-08-17T09:56:32;99844.41;;;21.36;82.17
78485;BME280;67773;50.806;8.776;2023-08-17T09:59:09;99848.41;;;21.51;83.02
78485;BME280;67773;50.806;8.776;2023-08-17T10:02:00;99844.66;;;21.81;82.57
78485;BME280;67773;50.806;8.776;2023-08-17T10:04:28;99849.22;;;22.28;80.74
78485;BME280;67773;50.806;8.776;2023-08-17T10:07:13;99850.09;;;22.56;77.69
78485;BME280;67773;50.806;8.776;2023-08-17T10:10:00;99847.84;;;22.51;75.08
78485;BME280;67773;50.806;8.776;2023-08-17T10:12:35;99843.81;;;22.83;74.80
78485;BME280;67773;50.806;8.776;2023-08-17T10:15:15;99839.06;;;23.12;74.86
78485;BME280;67773;50.806;8.776;2023-08-17T10:17:49;99842.94;;;23.10;74.94
78485;BME280;67773;50.806;8.776;2023-08-17T10:20:29;99844.81;;;22.82;75.20
78485;BME280;67773;50.806;8.776;2023-08-17T10:26:00;99852.00;;;22.73;75.95
78485;BME280;67773;50.806;8.776;2023-08-17T10:28:53;99833.56;;;22.59;75.84
78485;BME280;67773;50.806;8.776;2023-08-17T10:31:41;99843.34;;;22.42;74.03
78485;BME280;67773;50.806;8.776;2023-08-17T10:34:29;99847.81;;;22.24;75.33
78485;BME280;67773;50.806;8.776;2023-08-17T10:37:05;99845.69;;;22.17;75.52
78485;BME280;67773;50.806;8.776;2023-08-17T10:39:45;99846.72;;;22.07;74.10
78485;BME280;67773;50.806;8.776;2023-08-17T10:42:30;99840.44;;;22.16;77.18
78485;BME280;67773;50.806;8.776;2023-08-17T10:45:25;99837.13;;;22.32;75.25
78485;BME280;67773;50.806;8.776;2023-08-17T10:51:17;99839.44;;;22.99;72.04
78485;BME280;67773;50.806;8.776;2023-08-17T10:54:11;99834.50;;;23.48;69.38
78485;BME280;67773;50.806;8.776;2023-08-17T11:00:39;99837.75;;;23.96;66.29
78485;BME280;67773;50.806;8.776;2023-08-17T11:03:30;99837.28;;;24.00;67.31
78485;BME280;67773;50.806;8.776;2023-08-17T11:09:22;99831.56;;;23.85;67.73
78485;BME280;67773;50.806;8.776;2023-08-17T11:12:08;99830.03;;;23.83;70.97
78485;BME280;67773;50.806;8.776;2023-08-17T11:14:48;99823.75;;;24.34;69.81
78485;BME280;67773;50.806;8.776;2023-08-17T11:17:36;99825.81;;;24.40;66.88
78485;BME280;67773;50.806;8.776;2023-08-17T11:20:22;99821.38;;;24.31;69.36
78485;BME280;67773;50.806;8.776;2023-08-17T11:25:59;99829.56;;;26.67;61.74
78485;BME280;67773;50.806;8.776;2023-08-17T11:32:10;99806.81;;;35.04;37.59
78485;BME280;67773;50.806;8.776;2023-08-17T11:35:01;99800.53;;;36.03;35.90
78485;BME280;67773;50.806;8.776;2023-08-17T11:37:47;99801.25;;;36.22;34.08
78485;BME280;67773;50.806;8.776;2023-08-17T11:40:45;99801.59;;;36.14;33.11
78485;BME280;67773;50.806;8.776;2023-08-17T11:43:13;99804.06;;;37.31;31.86
78485;BME280;67773;50.806;8.776;2023-08-17T11:45:56;99807.91;;;34.84;35.31
78485;BME280;67773;50.806;8.776;2023-08-17T11:48:51;99802.50;;;32.78;40.06
78485;BME280;67773;50.806;8.776;2023-08-17T11:54:19;99812.00;;;31.45;43.55
78485;BME280;67773;50.806;8.776;2023-08-17T12:00:01;99809.00;;;30.17;47.46
78485;BME280;67773;50.806;8.776;2023-08-17T12:02:50;99817.78;;;28.78;50.11
78485;BME280;67773;50.806;8.776;2023-08-17T12:05:22;99817.25;;;28.09;53.06
78485;BME280;67773;50.806;8.776;2023-08-17T12:10:49;99816.09;;;26.97;58.84
78485;BME280;67773;50.806;8.776;2023-08-17T12:13:33;99809.00;;;26.17;62.67
78485;BME280;67773;50.806;8.776;2023-08-17T12:16:02;99817.72;;;25.97;63.19
78485;BME280;67773;50.806;8.776;2023-08-17T12:18:44;99811.63;;;25.86;64.59
78485;BME280;67773;50.806;8.776;2023-08-17T12:21:21;99817.91;;;25.46;64.72
78485;BME280;67773;50.806;8.776;2023-08-17T12:24:31;99812.16;;;25.33;66.41
78485;BME280;67773;50.806;8.776;2023-08-17T12:26:57;99801.44;;;25.15;66.98
78485;BME280;67773;50.806;8.776;2023-08-17T12:29:50;99792.25;;;25.65;65.24
78485;BME280;67773;50.806;8.776;2023-08-17T12:32:19;99793.63;;;25.85;65.57
78485;BME280;67773;50.806;8.776;2023-08-17T12:34:54;99782.47;;;26.90;59.96
78485;BME280;67773;50.806;8.776;2023-08-17T12:37:43;99771.88;;;28.08;54.53
78485;BME280;67773;50.806;8.776;2023-08-17T12:40:11;99768.44;;;29.01;53.93
78485;BME280;67773;50.806;8.776;2023-08-17T12:42:36;99773.16;;;31.87;44.56
78485;BME280;67773;50.806;8.776;2023-08-17T12:45:02;99768.63;;;34.70;37.64
78485;BME280;67773;50.806;8.776;2023-08-17T12:47:27;99763.28;;;36.98;33.10
78485;BME280;67773;50.806;8.776;2023-08-17T12:49:52;99763.88;;;35.61;36.17
78485;BME280;67773;50.806;8.776;2023-08-17T12:52:18;99775.94;;;32.59;41.05
78485;BME280;67773;50.806;8.776;2023-08-17T12:54:44;99783.09;;;31.55;45.52
78485;BME280;67773;50.806;8.776;2023-08-17T12:57:09;99775.97;;;33.35;43.75
78485;BME280;67773;50.806;8.776;2023-08-17T12:59:34;99776.97;;;35.66;36.15
78485;BME280;67773;50.806;8.776;2023-08-17T13:02:00;99772.03;;;36.38;33.34
78485;BME280;67773;50.806;8.776;2023-08-17T13:04:25;99765.78;;;35.84;33.97
78485;BME280;67773;50.806;8.776;2023-08-17T13:06:50;99760.19;;;33.49;38.70
78485;BME280;67773;50.806;8.776;2023-08-17T13:09:16;99774.44;;;33.39;38.52
78485;BME280;67773;50.806;8.776;2023-08-17T13:11:46;99774.66;;;35.09;38.99
78485;BME280;67773;50.806;8.776;2023-08-17T13:14:13;99766.91;;;36.06;34.29
78485;BME280;67773;50.806;8.776;2023-08-17T13:16:41;99765.22;;;36.97;33.50
78485;BME280;67773;50.806;8.776;2023-08-17T13:19:07;99768.53;;;36.83;34.42
78485;BME280;67773;50.806;8.776;2023-08-17T13:21:32;99765.88;;;37.50;32.57
78485;BME280;67773;50.806;8.776;2023-08-17T13:23:57;99769.53;;;36.65;32.70
78485;BME280;67773;50.806;8.776;2023-08-17T13:26:23;99768.44;;;36.14;32.37
78485;BME280;67773;50.806;8.776;2023-08-17T13:28:48;99780.88;;;33.51;37.66
78485;BME280;67773;50.806;8.776;2023-08-17T13:31:13;99781.63;;;31.86;44.35
78485;BME280;67773;50.806;8.776;2023-08-17T13:33:39;99788.56;;;30.61;48.58
78485;BME280;67773;50.806;8.776;2023-08-17T13:36:04;99783.47;;;30.10;49.72
78485;BME280;67773;50.806;8.776;2023-08-17T13:38:30;99787.28;;;29.39;48.11
78485;BME280;67773;50.806;8.776;2023-08-17T13:40:55;99789.06;;;29.03;48.52
78485;BME280;67773;50.806;8.776;2023-08-17T13:43:22;99793.91;;;28.21;51.08
78485;BME280;67773;50.806;8.776;2023-08-17T13:45:48;99792.41;;;27.28;56.09
78485;BME280;67773;50.806;8.776;2023-08-17T13:48:13;99792.38;;;26.83;55.87
78485;BME280;67773;50.806;8.776;2023-08-17T13:50:39;99792.81;;;26.63;58.41
78485;BME280;67773;50.806;8.776;2023-08-17T13:53:05;99796.78;;;26.05;61.16
78485;BME280;67773;50.806;8.776;2023-08-17T13:55:30;99795.09;;;26.83;57.86
78485;BME280;67773;50.806;8.776;2023-08-17T13:57:55;99779.09;;;29.39;52.63
78485;BME280;67773;50.806;8.776;2023-08-17T14:00:22;99765.41;;;32.49;43.58
78485;BME280;67773;50.806;8.776;2023-08-17T14:02:47;99762.63;;;33.00;40.68
78485;BME280;67773;50.806;8.776;2023-08-17T14:05:13;99760.13;;;33.24;41.23
78485;BME280;67773;50.806;8.776;2023-08-17T14:07:38;99756.25;;;33.31;39.27
78485;BME280;67773;50.806;8.776;2023-08-17T14:10:04;99741.47;;;33.57;40.97
78485;BME280;67773;50.806;8.776;2023-08-17T14:12:29;99749.06;;;32.03;41.06
78485;BME280;67773;50.806;8.776;2023-08-17T14:14:58;99748.47;;;31.68;42.30
78485;BME280;67773;50.806;8.776;2023-08-17T14:17:29;99750.81;;;30.09;48.14
78485;BME280;67773;50.806;8.776;2023-08-17T14:19:57;99744.09;;;29.06;50.32
78485;BME280;67773;50.806;8.776;2023-08-17T14:22:25;99753.06;;;29.43;50.17
78485;BME280;67773;50.806;8.776;2023-08-17T14:24:53;99742.56;;;31.44;46.54
78485;BME280;67773;50.806;8.776;2023-08-17T14:27:19;99735.66;;;33.16;41.42